createdAt,value
2023-05-16T00:01:53.635Z,9.62
2023-05-16T00:04:21.414Z,9.71
2023-05-16T00:06:49.005Z,9.61
2023-05-16T00:09:16.809Z,9.68
2023-05-16T00:11:45.003Z,9.64
2023-05-16T00:14:12.701Z,9.63
2023-05-16T00:16:41.758Z,9.56
2023-05-16T00:19:10.411Z,9.49
2023-05-16T00:21:38.054Z,9.64
2023-05-16T00:24:06.354Z,9.63
2023-05-16T00:26:33.859Z,9.55
2023-05-16T00:29:02.318Z,9.51
2023-05-16T00:31:29.933Z,9.62
2023-05-16T00:33:57.498Z,9.42
2023-05-16T00:36:25.136Z,9.43
2023-05-16T00:38:52.620Z,9.61
2023-05-16T00:41:21.040Z,9.37
2023-05-16T00:43:48.613Z,9.33
2023-05-16T00:46:16.323Z,9.22
2023-05-16T00:48:43.860Z,9.46
2023-05-16T00:51:11.933Z,9.43
2023-05-16T00:53:39.452Z,9.36
2023-05-16T00:56:07.799Z,9.37
2023-05-16T00:58:35.388Z,9.26
2023-05-16T01:01:03.686Z,9.34
2023-05-16T01:03:31.682Z,9.32
2023-05-16T01:05:59.764Z,9.37
2023-05-16T01:08:27.309Z,9.38
2023-05-16T01:11:20.036Z,9.32
2023-05-16T01:13:58.933Z,9.28
2023-05-16T01:16:47.275Z,9.19
2023-05-16T01:19:33.809Z,9.22
2023-05-16T01:22:07.681Z,9.15
2023-05-16T01:24:43.964Z,9.29
2023-05-16T01:27:12.963Z,9.18
2023-05-16T01:29:40.450Z,9.25
2023-05-16T01:32:08.216Z,9.25
2023-05-16T01:34:35.813Z,9.22
2023-05-16T01:37:22.662Z,9.08
2023-05-16T01:40:07.828Z,9.08
2023-05-16T01:42:40.668Z,9.10
2023-05-16T01:45:16.026Z,9.15
2023-05-16T01:47:48.684Z,9.15
2023-05-16T01:50:17.764Z,9.16
2023-05-16T01:52:56.456Z,9.14
2023-05-16T01:55:35.933Z,9.16
2023-05-16T01:58:05.846Z,9.08
2023-05-16T02:00:33.338Z,9.02
2023-05-16T02:03:00.939Z,9.02
2023-05-16T02:05:28.729Z,9.17
2023-05-16T02:07:56.613Z,9.19
2023-05-16T02:10:25.028Z,9.18
2023-05-16T02:12:53.083Z,9.16
2023-05-16T02:15:21.234Z,9.17
2023-05-16T02:17:48.909Z,9.18
2023-05-16T02:20:16.963Z,9.10
2023-05-16T02:22:47.018Z,9.00
2023-05-16T02:25:15.733Z,8.91
2023-05-16T02:27:44.008Z,9.01
2023-05-16T02:30:12.826Z,8.98
2023-05-16T02:32:41.397Z,8.96
2023-05-16T02:35:09.096Z,8.84
2023-05-16T02:37:36.584Z,8.89
2023-05-16T02:40:05.755Z,8.89
2023-05-16T02:42:33.252Z,8.86
2023-05-16T02:45:00.922Z,8.77
2023-05-16T02:47:29.256Z,8.70
2023-05-16T02:49:56.782Z,8.71
2023-05-16T02:52:24.232Z,8.72
2023-05-16T02:55:09.204Z,8.70
2023-05-16T02:57:37.540Z,8.81
2023-05-16T03:00:06.131Z,8.75
2023-05-16T03:02:33.820Z,8.71
2023-05-16T03:05:01.575Z,8.65
2023-05-16T03:07:29.086Z,8.61
2023-05-16T03:09:56.540Z,8.54
2023-05-16T03:12:24.083Z,8.53
2023-05-16T03:14:51.793Z,8.52
2023-05-16T03:17:19.412Z,8.47
2023-05-16T03:19:47.076Z,8.42
2023-05-16T03:22:14.536Z,8.34
2023-05-16T03:24:42.064Z,8.30
2023-05-16T03:27:09.653Z,8.28
2023-05-16T03:29:37.156Z,8.20
2023-05-16T03:32:05.155Z,8.19
2023-05-16T03:34:32.739Z,8.16
2023-05-16T03:37:00.458Z,8.11
2023-05-16T03:39:28.022Z,8.08
2023-05-16T03:41:57.143Z,8.05
2023-05-16T03:44:24.694Z,8.09
2023-05-16T03:46:52.937Z,8.10
2023-05-16T03:49:21.988Z,8.18
2023-05-16T03:51:49.468Z,8.20
2023-05-16T03:54:16.952Z,8.21
2023-05-16T03:56:44.412Z,8.19
2023-05-16T03:59:12.483Z,8.13
2023-05-16T04:01:40.179Z,8.16
2023-05-16T04:04:08.062Z,8.16
2023-05-16T04:06:35.682Z,8.12
2023-05-16T04:09:03.205Z,8.12
2023-05-16T04:11:30.745Z,8.18
2023-05-16T04:13:58.926Z,8.21
2023-05-16T04:16:26.554Z,8.20
2023-05-16T04:18:54.176Z,8.29
2023-05-16T04:21:21.745Z,8.33
2023-05-16T04:23:49.713Z,8.27
2023-05-16T04:26:17.185Z,8.26
2023-05-16T04:28:44.800Z,8.26
2023-05-16T04:31:14.131Z,8.32
2023-05-16T04:33:41.734Z,8.34
2023-05-16T04:36:09.573Z,8.32
2023-05-16T04:38:37.790Z,8.44
2023-05-16T04:41:05.330Z,8.52
2023-05-16T04:43:32.972Z,8.56
2023-05-16T04:46:00.597Z,8.69
2023-05-16T04:48:28.367Z,8.80
2023-05-16T04:50:55.955Z,8.81
2023-05-16T04:53:23.557Z,8.89
2023-05-16T04:55:51.162Z,9.00
2023-05-16T04:58:18.648Z,9.08
2023-05-16T05:00:46.131Z,9.11
2023-05-16T05:03:13.724Z,9.20
2023-05-16T05:05:41.308Z,9.25
2023-05-16T05:08:09.694Z,9.27
2023-05-16T05:10:37.513Z,9.35
2023-05-16T05:13:04.999Z,9.45
2023-05-16T05:15:32.517Z,9.36
2023-05-16T05:18:00.233Z,9.55
2023-05-16T05:20:28.568Z,9.66
2023-05-16T05:22:56.049Z,9.79
2023-05-16T05:25:23.613Z,9.75
2023-05-16T05:27:51.142Z,9.97
2023-05-16T05:30:18.666Z,10.14
2023-05-16T05:32:46.252Z,10.24
2023-05-16T05:35:13.775Z,10.14
2023-05-16T05:37:41.415Z,10.30
2023-05-16T05:40:09.320Z,10.30
2023-05-16T05:42:36.810Z,10.43
2023-05-16T05:45:04.987Z,10.34
2023-05-16T05:47:32.677Z,10.45
2023-05-16T05:50:00.632Z,10.51
2023-05-16T05:52:28.971Z,10.50
2023-05-16T05:54:56.571Z,10.76
2023-05-16T05:57:24.148Z,10.87
2023-05-16T05:59:51.829Z,11.01
2023-05-16T06:02:19.407Z,11.05
2023-05-16T06:04:47.008Z,11.16
2023-05-16T06:07:16.077Z,11.22
2023-05-16T06:09:44.015Z,11.29
2023-05-16T06:12:11.620Z,11.61
2023-05-16T06:14:39.124Z,11.45
2023-05-16T06:17:06.859Z,11.69
2023-05-16T06:19:34.540Z,11.59
2023-05-16T06:22:02.123Z,11.78
2023-05-16T06:24:30.545Z,11.88
2023-05-16T06:26:59.297Z,11.88
2023-05-16T06:29:26.828Z,11.86
2023-05-16T06:31:54.555Z,11.71
2023-05-16T06:34:28.275Z,11.48
2023-05-16T06:36:56.414Z,11.52
2023-05-16T06:39:23.945Z,11.47
2023-05-16T06:41:52.407Z,11.53
2023-05-16T06:44:21.387Z,11.64
2023-05-16T06:46:49.044Z,11.90
2023-05-16T06:49:16.655Z,11.57
2023-05-16T06:51:44.190Z,11.56
2023-05-16T06:54:11.860Z,11.51
2023-05-16T06:56:39.434Z,11.58
2023-05-16T06:59:06.998Z,11.57
2023-05-16T07:01:34.626Z,11.73
2023-05-16T07:04:02.333Z,11.70
2023-05-16T07:06:29.979Z,11.90
2023-05-16T07:08:57.587Z,12.16
2023-05-16T07:11:25.559Z,12.32
2023-05-16T07:13:53.210Z,12.47
2023-05-16T07:16:20.855Z,12.67
2023-05-16T07:18:48.488Z,13.07
2023-05-16T07:21:16.498Z,13.28
2023-05-16T07:23:44.230Z,12.98
2023-05-16T07:26:11.944Z,12.73
2023-05-16T07:28:39.631Z,12.52
2023-05-16T07:31:08.353Z,13.07
2023-05-16T07:33:36.025Z,13.17
2023-05-16T07:36:15.401Z,13.53
2023-05-16T07:38:45.097Z,13.75
2023-05-16T07:41:12.880Z,13.82
2023-05-16T07:43:40.600Z,13.79
2023-05-16T07:46:08.218Z,13.14
2023-05-16T07:48:35.991Z,12.34
2023-05-16T07:51:03.632Z,12.35
2023-05-16T07:53:31.169Z,12.73
2023-05-16T07:55:58.898Z,12.67
2023-05-16T07:58:26.467Z,13.29
2023-05-16T08:00:54.051Z,13.92
2023-05-16T08:03:21.894Z,13.66
2023-05-16T08:05:50.233Z,13.97
2023-05-16T08:08:17.807Z,14.09
2023-05-16T08:10:45.428Z,14.00
2023-05-16T08:13:13.055Z,13.90
2023-05-16T08:15:40.728Z,13.65
2023-05-16T08:18:14.048Z,13.61
2023-05-16T08:20:42.406Z,13.04
2023-05-16T08:23:10.763Z,13.73
2023-05-16T08:25:38.448Z,14.18
2023-05-16T08:28:06.024Z,13.67
2023-05-16T08:30:33.631Z,13.53
2023-05-16T08:33:04.823Z,13.59
2023-05-16T08:35:32.683Z,13.55
2023-05-16T08:38:00.491Z,14.31
2023-05-16T08:40:29.299Z,14.88
2023-05-16T08:42:57.223Z,15.44
2023-05-16T08:45:25.197Z,15.54
2023-05-16T08:47:56.170Z,15.32
2023-05-16T08:50:26.255Z,15.62
2023-05-16T08:52:54.564Z,15.57
2023-05-16T08:55:23.026Z,15.51
2023-05-16T08:57:52.180Z,15.06
2023-05-16T09:00:20.271Z,14.95
2023-05-16T09:02:48.386Z,15.02
2023-05-16T09:05:18.256Z,15.87
2023-05-16T09:07:46.999Z,14.96
2023-05-16T09:10:14.920Z,14.75
2023-05-16T09:12:43.618Z,14.90
2023-05-16T09:15:12.671Z,15.20
2023-05-16T09:17:43.004Z,15.84
2023-05-16T09:20:15.553Z,16.60
2023-05-16T09:22:53.095Z,16.03
2023-05-16T09:25:30.265Z,16.25
2023-05-16T09:28:01.413Z,16.05
2023-05-16T09:30:34.935Z,16.13
2023-05-16T09:33:03.149Z,15.45
2023-05-16T09:35:44.070Z,15.34
2023-05-16T09:38:19.303Z,15.61
2023-05-16T09:40:47.437Z,15.72
2023-05-16T09:43:18.744Z,15.87
2023-05-16T09:45:48.912Z,16.43
2023-05-16T09:48:17.986Z,16.64
2023-05-16T09:50:54.586Z,16.88
2023-05-16T09:53:29.669Z,17.18
2023-05-16T09:56:07.703Z,17.30
2023-05-16T09:58:38.038Z,16.84
2023-05-16T10:01:07.193Z,16.52
2023-05-16T10:03:40.995Z,15.66
2023-05-16T10:06:09.507Z,15.74
2023-05-16T10:08:38.096Z,15.56
2023-05-16T10:11:07.006Z,15.29
2023-05-16T10:13:37.780Z,15.49
2023-05-16T10:16:13.420Z,15.82
2023-05-16T10:18:42.027Z,16.16
2023-05-16T10:21:14.920Z,16.48
2023-05-16T10:23:44.252Z,16.52
2023-05-16T10:26:14.654Z,16.23
2023-05-16T10:28:43.056Z,16.44
2023-05-16T10:31:12.302Z,16.48
2023-05-16T10:33:40.817Z,16.01
2023-05-16T10:36:13.041Z,16.26
2023-05-16T10:38:41.203Z,16.10
2023-05-16T10:41:09.953Z,15.68
2023-05-16T10:43:37.763Z,15.65
2023-05-16T10:46:09.650Z,15.53
2023-05-16T10:48:38.832Z,15.81
2023-05-16T10:51:24.840Z,15.83
2023-05-16T10:53:53.472Z,16.19
2023-05-16T10:56:28.673Z,16.02
2023-05-16T10:58:56.849Z,15.83
2023-05-16T11:01:24.676Z,16.10
2023-05-16T11:04:01.745Z,15.88
2023-05-16T11:06:42.605Z,16.97
2023-05-16T11:09:13.576Z,16.45
2023-05-16T11:11:48.954Z,16.33
2023-05-16T11:14:37.288Z,16.48
2023-05-16T11:17:14.158Z,16.38
2023-05-16T11:19:43.374Z,16.18
2023-05-16T11:22:21.823Z,16.91
2023-05-16T11:25:00.425Z,17.36
2023-05-16T11:27:36.645Z,17.71
2023-05-16T11:30:07.044Z,17.42
2023-05-16T11:32:36.639Z,17.70
2023-05-16T11:35:05.782Z,17.39
2023-05-16T11:37:33.337Z,17.42
2023-05-16T11:40:07.085Z,16.94
2023-05-16T11:42:41.531Z,16.65
2023-05-16T11:45:21.494Z,16.41
2023-05-16T11:47:50.761Z,16.51
2023-05-16T11:50:20.847Z,15.96
2023-05-16T11:52:50.314Z,15.78
2023-05-16T11:55:28.353Z,15.92
2023-05-16T11:58:01.046Z,15.35
2023-05-16T12:00:28.989Z,15.48
2023-05-16T12:03:04.592Z,15.85
2023-05-16T12:05:34.051Z,15.57
2023-05-16T12:08:02.816Z,15.64
2023-05-16T12:10:34.183Z,16.20
2023-05-16T12:13:03.393Z,16.86
2023-05-16T12:15:31.530Z,16.69
2023-05-16T12:17:59.775Z,16.64
2023-05-16T12:20:27.809Z,16.61
2023-05-16T12:22:59.151Z,16.21
2023-05-16T12:25:36.377Z,16.44
2023-05-16T12:28:05.117Z,16.07
2023-05-16T12:30:33.804Z,15.85
2023-05-16T12:33:05.980Z,15.93
2023-05-16T12:35:36.732Z,16.39
2023-05-16T12:38:09.243Z,16.04
2023-05-16T12:40:41.774Z,16.81
2023-05-16T12:43:15.625Z,16.83
2023-05-16T12:45:44.409Z,16.23
2023-05-16T12:48:16.115Z,15.61
2023-05-16T12:50:45.709Z,15.93
2023-05-16T12:53:14.732Z,16.08
2023-05-16T12:55:43.472Z,15.94
2023-05-16T12:58:12.551Z,15.78
2023-05-16T13:00:40.930Z,15.78
2023-05-16T13:03:08.839Z,15.22
2023-05-16T13:05:36.769Z,15.31
2023-05-16T13:08:04.820Z,15.81
2023-05-16T13:10:32.434Z,15.44
2023-05-16T13:13:00.305Z,16.20
2023-05-16T13:15:28.634Z,17.09
2023-05-16T13:17:56.555Z,17.41
2023-05-16T13:20:24.756Z,17.48
2023-05-16T13:22:52.372Z,17.48
2023-05-16T13:25:19.994Z,17.27
2023-05-16T13:27:49.415Z,17.39
2023-05-16T13:30:17.063Z,17.21
2023-05-16T13:32:44.718Z,16.96
2023-05-16T13:35:12.371Z,16.80
2023-05-16T13:37:41.389Z,17.42
2023-05-16T13:40:10.261Z,17.30
2023-05-16T13:42:39.026Z,16.68
2023-05-16T13:45:09.042Z,16.75
2023-05-16T13:47:36.771Z,16.24
2023-05-16T13:50:09.074Z,16.16
2023-05-16T13:52:37.904Z,16.13
2023-05-16T13:55:08.103Z,16.10
2023-05-16T13:57:35.913Z,15.99
2023-05-16T14:02:42.730Z,16.25
2023-05-16T14:05:10.631Z,16.20
2023-05-16T14:07:38.223Z,16.48
2023-05-16T14:10:06.959Z,16.24
2023-05-16T14:12:34.752Z,16.05
2023-05-16T14:15:02.357Z,16.32
2023-05-16T14:17:29.955Z,16.07
2023-05-16T14:19:57.546Z,16.06
2023-05-16T14:22:25.227Z,16.45
2023-05-16T14:24:52.753Z,16.03
2023-05-16T14:27:20.357Z,15.96
2023-05-16T14:29:48.972Z,16.31
2023-05-16T14:32:16.703Z,16.61
2023-05-16T14:34:44.576Z,16.67
2023-05-16T14:37:12.185Z,16.75
2023-05-16T14:39:39.753Z,16.80
2023-05-16T14:42:08.789Z,16.96
2023-05-16T14:44:36.643Z,16.99
2023-05-16T14:47:05.063Z,16.75
2023-05-16T14:49:33.048Z,16.55
2023-05-16T14:52:00.638Z,16.24
2023-05-16T14:54:28.134Z,15.93
2023-05-16T14:56:56.602Z,15.92
2023-05-16T14:59:24.139Z,16.33
2023-05-16T15:01:51.738Z,16.48
2023-05-16T15:04:19.486Z,16.58
2023-05-16T15:06:47.028Z,16.51
2023-05-16T15:09:14.569Z,16.54
2023-05-16T15:11:42.113Z,16.42
2023-05-16T15:14:09.725Z,16.39
2023-05-16T15:16:37.328Z,16.34
2023-05-16T15:19:05.101Z,16.42
2023-05-16T15:21:33.197Z,16.39
2023-05-16T15:24:00.881Z,16.51
2023-05-16T15:26:28.495Z,16.76
2023-05-16T15:28:56.937Z,16.94
2023-05-16T15:31:24.595Z,17.34
2023-05-16T15:33:52.223Z,16.91
2023-05-16T15:36:19.861Z,16.43
2023-05-16T15:38:47.579Z,16.46
2023-05-16T15:41:31.397Z,16.45
2023-05-16T15:44:03.439Z,16.20
2023-05-16T15:46:32.963Z,16.11
2023-05-16T15:49:00.832Z,15.46
2023-05-16T15:51:28.385Z,15.70
2023-05-16T15:53:55.920Z,15.74
2023-05-16T15:56:23.502Z,15.39
2023-05-16T15:58:51.138Z,15.20
2023-05-16T16:01:18.819Z,15.21
2023-05-16T16:03:46.644Z,14.96
2023-05-16T16:06:14.513Z,14.97
2023-05-16T16:08:42.157Z,14.93
2023-05-16T16:11:09.688Z,15.02
2023-05-16T16:13:38.052Z,14.82
2023-05-16T16:16:05.922Z,14.54
2023-05-16T16:18:34.516Z,14.43
2023-05-16T16:21:02.151Z,14.28
2023-05-16T16:23:29.630Z,13.95
2023-05-16T16:25:57.127Z,14.15
2023-05-16T16:28:24.680Z,14.02
2023-05-16T16:30:52.286Z,14.11
2023-05-16T16:33:19.809Z,14.28
2023-05-16T16:35:47.453Z,14.39
2023-05-16T16:38:15.015Z,14.47
2023-05-16T16:40:42.570Z,14.51
2023-05-16T16:43:12.445Z,14.55
2023-05-16T16:45:39.993Z,14.58
2023-05-16T16:48:09.124Z,14.75
2023-05-16T16:50:36.870Z,14.72
2023-05-16T16:53:04.505Z,14.75
2023-05-16T16:55:32.135Z,14.37
2023-05-16T16:57:59.660Z,14.64
2023-05-16T17:00:27.422Z,14.89
2023-05-16T17:02:55.260Z,14.74
2023-05-16T17:05:23.000Z,14.60
2023-05-16T17:07:51.687Z,14.61
2023-05-16T17:10:19.468Z,14.62
2023-05-16T17:12:49.333Z,14.80
2023-05-16T17:15:18.026Z,14.58
2023-05-16T17:17:47.045Z,14.75
2023-05-16T17:20:14.695Z,14.65
2023-05-16T17:22:42.576Z,14.67
2023-05-16T17:25:10.823Z,14.67
2023-05-16T17:27:38.379Z,14.46
2023-05-16T17:30:06.488Z,14.36
2023-05-16T17:32:34.061Z,14.15
2023-05-16T17:35:03.917Z,14.28
2023-05-16T17:37:31.664Z,14.14
2023-05-16T17:39:59.703Z,14.28
2023-05-16T17:42:27.323Z,14.30
2023-05-16T17:44:54.922Z,14.33
2023-05-16T17:47:23.212Z,14.32
2023-05-16T17:49:50.750Z,14.31
2023-05-16T17:52:20.094Z,14.14
2023-05-16T17:54:48.107Z,14.28
2023-05-16T17:57:15.763Z,14.53
2023-05-16T17:59:43.269Z,14.40
2023-05-16T18:02:15.122Z,14.46
2023-05-16T18:04:43.065Z,14.32
2023-05-16T18:07:10.667Z,14.24
2023-05-16T18:09:38.590Z,14.28
2023-05-16T18:12:06.910Z,14.26
2023-05-16T18:14:34.477Z,14.05
2023-05-16T18:17:02.085Z,13.86
2023-05-16T18:19:30.471Z,13.97
2023-05-16T18:21:58.449Z,13.92
2023-05-16T18:24:25.980Z,13.70
2023-05-16T18:26:53.529Z,13.77
2023-05-16T18:29:23.489Z,13.45
2023-05-16T18:31:51.011Z,13.42
2023-05-16T18:34:18.639Z,13.58
2023-05-16T18:36:46.223Z,13.44
2023-05-16T18:39:13.831Z,13.55
2023-05-16T18:41:43.841Z,13.42
2023-05-16T18:44:11.351Z,13.33
2023-05-16T18:46:38.894Z,13.47
2023-05-16T18:49:06.541Z,13.37
2023-05-16T18:51:34.211Z,13.39
2023-05-16T18:54:01.740Z,13.15
2023-05-16T18:56:29.262Z,13.17
2023-05-16T18:58:57.008Z,13.17
2023-05-16T19:01:25.402Z,13.16
2023-05-16T19:03:53.108Z,12.94
2023-05-16T19:06:20.662Z,12.82
2023-05-16T19:08:48.563Z,12.78
2023-05-16T19:11:17.300Z,12.67
2023-05-16T19:13:48.358Z,12.65
2023-05-16T19:16:16.237Z,12.75
2023-05-16T19:18:43.945Z,12.70
2023-05-16T19:21:13.249Z,12.67
2023-05-16T19:23:41.080Z,12.45
2023-05-16T19:26:08.701Z,12.40
2023-05-16T19:28:37.458Z,12.36
2023-05-16T19:31:05.070Z,12.29
2023-05-16T19:33:32.578Z,12.23
2023-05-16T19:36:00.370Z,12.17
2023-05-16T19:38:28.006Z,12.02
2023-05-16T19:40:55.640Z,11.82
2023-05-16T19:43:23.453Z,11.84
2023-05-16T19:45:51.177Z,11.74
2023-05-16T19:48:18.809Z,11.74
2023-05-16T19:50:46.437Z,11.78
2023-05-16T19:53:14.009Z,11.64
2023-05-16T19:55:41.525Z,11.67
2023-05-16T19:58:09.023Z,11.59
2023-05-16T20:00:36.557Z,11.69
2023-05-16T20:03:04.176Z,11.58
2023-05-16T20:05:31.824Z,11.58
2023-05-16T20:07:59.471Z,11.42
2023-05-16T20:10:27.053Z,11.39
2023-05-16T20:12:54.636Z,11.39
2023-05-16T20:15:22.192Z,11.29
2023-05-16T20:17:49.792Z,11.19
2023-05-16T20:20:17.447Z,11.18
2023-05-16T20:22:44.989Z,11.19
2023-05-16T20:25:12.767Z,11.16
2023-05-16T20:27:40.754Z,11.13
2023-05-16T20:30:08.922Z,11.19
2023-05-16T20:32:36.570Z,11.06
2023-05-16T20:35:08.926Z,11.05
2023-05-16T20:37:36.382Z,11.08
2023-05-16T20:40:05.531Z,11.11
2023-05-16T20:42:33.090Z,11.03
2023-05-16T20:45:00.728Z,10.97
2023-05-16T20:47:28.701Z,10.91
2023-05-16T20:49:56.461Z,10.89
2023-05-16T20:52:24.242Z,10.84
2023-05-16T20:54:51.731Z,10.82
2023-05-16T20:57:19.294Z,10.84
2023-05-16T20:59:46.792Z,10.77
2023-05-16T21:02:14.368Z,10.74
2023-05-16T21:04:42.070Z,10.74
2023-05-16T21:07:11.268Z,10.81
2023-05-16T21:09:39.713Z,10.75
2023-05-16T21:12:07.661Z,10.72
2023-05-16T21:14:35.257Z,10.65
2023-05-16T21:17:02.787Z,10.64
2023-05-16T21:19:34.061Z,10.64
2023-05-16T21:22:03.934Z,10.65
2023-05-16T21:24:35.097Z,10.53
2023-05-16T21:27:04.016Z,10.45
2023-05-16T21:29:31.776Z,10.62
2023-05-16T21:31:59.896Z,10.58
2023-05-16T21:34:27.447Z,10.60
2023-05-16T21:36:54.984Z,10.55
2023-05-16T21:39:22.488Z,10.50
2023-05-16T21:41:49.989Z,10.46
2023-05-16T21:44:18.539Z,10.38
2023-05-16T21:46:46.104Z,10.38
2023-05-16T21:49:13.785Z,10.29
2023-05-16T21:51:41.529Z,10.28
2023-05-16T21:54:09.079Z,10.29
2023-05-16T21:56:36.675Z,10.25
2023-05-16T21:59:04.234Z,10.20
2023-05-16T22:01:31.910Z,10.25
2023-05-16T22:03:59.669Z,10.25
2023-05-16T22:06:27.395Z,10.22
2023-05-16T22:08:54.977Z,10.23
2023-05-16T22:11:22.809Z,10.16
2023-05-16T22:13:51.240Z,10.10
2023-05-16T22:16:18.972Z,10.07
2023-05-16T22:18:46.729Z,10.05
2023-05-16T22:21:16.186Z,9.99
2023-05-16T22:23:43.902Z,10.03
2023-05-16T22:26:11.454Z,10.00
2023-05-16T22:28:39.072Z,9.98
2023-05-16T22:31:06.681Z,9.95
2023-05-16T22:33:34.287Z,9.89
2023-05-16T22:36:03.097Z,9.93
2023-05-16T22:38:31.662Z,9.87
2023-05-16T22:40:59.343Z,9.86
2023-05-16T22:43:26.925Z,9.79
2023-05-16T22:45:54.452Z,9.77
2023-05-16T22:48:22.132Z,9.81
2023-05-16T22:50:49.760Z,9.79
2023-05-16T22:53:17.294Z,9.75
2023-05-16T22:55:44.974Z,9.81
2023-05-16T22:58:12.555Z,9.75
2023-05-16T23:00:40.074Z,9.77
2023-05-16T23:03:07.685Z,9.76
2023-05-16T23:05:35.726Z,9.77
2023-05-16T23:08:04.383Z,9.71
2023-05-16T23:10:32.500Z,9.67
2023-05-16T23:13:00.161Z,9.62
2023-05-16T23:15:27.977Z,9.63
2023-05-16T23:17:56.228Z,9.60
2023-05-16T23:20:24.407Z,9.61
2023-05-16T23:22:51.961Z,9.59
2023-05-16T23:25:19.507Z,9.54
2023-05-16T23:27:47.080Z,9.53
2023-05-16T23:30:14.981Z,9.54
2023-05-16T23:32:42.622Z,9.49
2023-05-16T23:35:10.571Z,9.59
2023-05-16T23:37:38.150Z,9.58
2023-05-16T23:40:06.184Z,9.59
2023-05-16T23:42:33.726Z,9.61
2023-05-16T23:45:01.584Z,9.66
2023-05-16T23:47:29.229Z,9.59
2023-05-16T23:49:57.048Z,9.60
2023-05-16T23:52:24.608Z,9.59
2023-05-16T23:54:52.161Z,9.58
2023-05-16T23:57:19.700Z,9.60
2023-05-16T23:59:47.236Z,9.56
